Portada
METAR-TAF:

METAR-TAF

Aeropuertos :

Shanghái-Pudong, China

Aeropuerto Internacional de Shanghái-Pudong

latitud: 31-07N, longitud: 121-46E, altitud: 4 m

Observación

El informe se hizo hace 18 minutos, a las 04:30 UTC
Viento 10 kt del este-noreste, variando entre norte-noreste y este
Temperatura 35°C
Humedad 67%
Presión 1005 hPa
Visibilidad 10 km o más
Escasas nubes a una altura de 2000 ft

METAR: ZSPD 260430Z 06005MPS 020V090 9999 FEW020 35/28 Q1005 NOSIG

Hora: 12:48 (04:48 UTC)

Pronóstico

El informe se hizo hace 7 horas y 33 minutos, a las 21:15 UTC
Pronóstico válido del 26 a las 00 UTC al 26 a las 24 UTC
Viento 8 kt del noreste
Visibilidad: 6000 m
Nubes dispersas a una altura de 1000 ft
Evolucionando progresivamente
del 26 a las 10 UTC al 26 a las 12 UTC
Viento 8 kt del este-sureste

TAF: ZSPD 252115Z 2600/2624 05004MPS 6000 SCT010 TX37/2606Z TN28/2621Z BECMG 2610/2612 11004MPS

Observaciones y pronósticos meteorológicos de más de 4000 aeropuertos (mensajes METAR y TAF).

Los puntos amarillos y rojos representan las estaciones disponibles.

Ponga el ratón en el punto deseado para ver el nombre de la estación.

Haga clic para ver las observaciones y los pronósticos meteorológicos.

Para cambiar el mapa : haga clic en los botones verdes con una cruz de color negro para hacer un zoom, en el botón verde con un guión para alejar o en las flechas verdes para mapas adyacentes.


METAR-TAF: